Latest Weather Observations for Griffith

IDN60801

Issued at 3:03 am EST Thursday 29 September 2016 (issued every 30 minutes, with the page automatically refreshed every 10 minutes)

About weather observations | Map of weather stations | Latest weather observations for NSW | Other Formats
Station Details ID: 075041 Name: GRIFFITH AIRPORT AWS Lat: -34.25 Lon: 146.07 Height: 134.0 m
Data from the previous 72 hours. | See also: Recent months at Griffith
Date/Time
EST
Temp
°C
App
Temp
°C
Dew
Point
°C
Rel
Hum
%
Delta-T
°C
Wind Press
QNH
hPa
Press
MSL
hPa
Rain since
9am
mm
Dir  Spd
km/h
Gust
km/h
Spd
kts
Gust
kts
29/03:00am 12.8 9.4 12.6 99 0.1 NNE 22 33 12 18 994.4 994.3 4.0
29/02:49am 12.7 9.7 12.5 99 0.1 NNE 20 32 11 17 994.8 994.7 3.6
29/02:37am 12.6 9.2 12.4 99 0.1 NNE 22 32 12 17 995.3 995.2 3.6
29/02:30am 12.9 9.5 12.4 97 0.3 NNE 22 33 12 18 995.6 995.5 2.8
29/02:00am 13.0 9.5 12.2 95 0.4 NNE 22 28 12 15 996.0 995.9 2.4
29/01:30am 13.3 9.7 11.7 90 0.9 N 22 33 12 18 997.2 997.2 1.8
29/01:06am 14.2 9.3 11.4 83 1.5 NNE 28 46 15 25 997.6 997.6 0.8
29/01:00am 14.4 8.8 11.6 83 1.5 NNE 32 46 17 25 996.6 996.5 0.8
29/12:31am 14.2 7.9 11.0 81 1.7 NNE 35 56 19 30 997.6 997.6 0.4
29/12:30am 14.2 8.3 11.0 81 1.7 NNE 33 48 18 26 997.7 997.7 0.4
29/12:00am 14.9 8.2 9.7 71 2.7 NNE 35 50 19 27 997.5 997.5 0.0
 
Date/Time
EST
Temp
°C
App
Temp
°C
Dew
Point
°C
Rel
Hum
%
Delta-T
°C
Wind Press
QNH
hPa
Press
MSL
hPa
Rain since
9am
mm
Dir  Spd
km/h
Gust
km/h
Spd
kts
Gust
kts
28/11:46pm 15.5 8.2 8.7 64 3.5 NE 37 61 20 33 997.6 997.6 0.0
28/11:30pm 15.0 8.5 8.9 67 3.1 NE 33 46 18 25 998.3 998.3 0.0
28/11:02pm 15.8 7.9 7.8 59 4.0 NE 39 57 21 31 998.3 998.3 0.0
28/11:00pm 15.7 7.8 7.7 59 4.1 NE 39 54 21 29 998.4 998.4 0.0
28/10:49pm 15.7 7.8 7.7 59 4.0 NE 39 57 21 31 998.6 998.6 0.0
28/10:30pm 15.8 7.8 7.3 57 4.2 NE 39 52 21 28 999.1 999.1 0.0
28/10:18pm 16.1 7.6 7.1 55 4.5 NE 41 59 22 32 999.2 999.2 0.0
28/10:00pm 16.2 7.4 7.2 55 4.5 NE 43 56 23 30 999.7 999.7 0.0
28/09:41pm 16.2 8.1 7.2 55 4.5 NE 39 59 21 32 1000.1 1000.1 0.0
28/09:30pm 15.9 8.3 7.4 57 4.3 NE 37 50 20 27 1000.7 1000.6 0.0
28/09:08pm 15.6 9.0 7.6 59 4.0 NE 32 50 17 27 1001.4 1001.3 0.0
28/09:00pm 15.8 8.6 7.8 59 4.1 NE 35 52 19 28 1001.4 1001.3 0.0
28/08:56pm 15.6 8.8 7.6 59 4.0 NE 33 52 18 28 1001.5 1001.4 0.0
28/08:30pm 15.1 10.1 7.9 62 3.6 NE 24 37 13 20 1002.3 1002.2 0.0
28/08:00pm 15.1 10.1 7.9 62 3.6 NE 24 35 13 19 1002.8 1002.7 0.0
28/07:30pm 14.9 11.2 7.9 63 3.5 NNE 17 28 9 15 1003.4 1003.4 0.0
28/07:00pm 15.3 10.6 7.6 60 3.9 NNE 22 33 12 18 1003.2 1003.1 0.0
28/06:30pm 15.8 10.9 7.1 56 4.3 NE 22 32 12 17 1003.0 1002.9 0.0
28/06:00pm 16.4 11.9 7.1 54 4.7 NE 20 35 11 19 1003.6 1003.6 0.0
28/05:30pm 17.6 12.7 6.8 49 5.4 NE 22 32 12 17 1004.4 1004.4 0.0
28/05:00pm 17.6 12.4 7.1 50 5.3 NNE 24 35 13 19 1005.1 1005.1 0.0
28/04:30pm 18.8 12.9 5.6 42 6.5 NNE 26 37 14 20 1005.1 1005.1 0.0
28/04:00pm 18.8 13.2 7.3 47 5.9 NE 26 35 14 19 1005.4 1005.4 0.0
28/03:30pm 18.9 13.4 6.1 43 6.4 NE 24 35 13 19 1005.8 1005.8 0.0
28/03:00pm 19.3 14.0 6.8 44 6.3 NE 24 35 13 19 1006.3 1006.3 0.0
28/02:30pm 19.2 13.7 6.0 42 6.6 NE 24 33 13 18 1007.1 1007.1 0.0
28/02:00pm 19.5 14.8 7.6 46 6.1 NE 22 33 12 18 1008.1 1008.0 0.0
28/01:30pm 18.9 14.1 5.7 42 6.5 NNE 20 28 11 15 1009.0 1008.9 0.0
28/01:00pm 18.9 14.5 6.4 44 6.3 NNE 19 32 10 17 1009.6 1009.6 0.0
28/12:30pm 18.4 13.9 5.9 44 6.2 NNE 19 30 10 16 1010.8 1010.8 0.0
28/12:00pm 17.8 14.1 6.3 47 5.7 NE 15 24 8 13 1011.5 1011.5 0.0
28/11:30am 17.8 13.4 4.7 42 6.3 NE 17 28 9 15 1012.4 1012.4 0.0
28/11:00am 17.0 12.8 5.6 47 5.5 NE 17 24 9 13 1012.9 1012.9 0.0
28/10:30am 16.6 12.5 6.4 51 5.0 ENE 17 24 9 13 1013.4 1013.4 0.0
28/10:00am 16.0 11.7 5.3 49 5.1 ENE 17 22 9 12 1013.8 1013.8 0.0
28/09:30am 15.4 11.6 5.9 53 4.6 NE 15 22 8 12 1014.1 1014.1 0.0
28/09:00am 14.7 11.8 6.3 57 4.1 NE 11 17 6 9 1014.3 1014.3 0.0
28/08:30am 13.4 11.4 8.7 73 2.4 E 9 11 5 6 1014.4 1014.4 0.0
28/08:00am 10.9 8.5 8.5 85 1.2 E 11 15 6 8 1014.4 1014.4 0.0
28/07:30am 8.5 5.7 8.4 99 0.0 ESE 13 17 7 9 1014.3 1014.3 0.0
28/07:00am 6.6 3.7 6.5 99 0.0 E 11 13 6 7 1014.3 1014.3 0.0
28/06:30am 4.2 1.8 4.1 99 0.0 E 6 7 3 4 1014.4 1014.4 0.0
28/06:00am 3.4 0.8 3.3 99 0.0 ESE 6 7 3 4 1014.5 1014.5 0.0
28/05:30am 3.3 1.8 3.2 99 0.0 CALM 0 7 0 4 1014.3 1014.3 0.0
28/05:00am 2.5 0.9 2.4 99 0.0 CALM 0 0 0 0 1014.2 1014.2 0.0
28/04:30am 2.4 0.8 2.3 99 0.0 CALM 0 0 0 0 1014.3 1014.3 0.0
28/04:00am 3.0 1.5 2.9 99 0.0 CALM 0 0 0 0 1014.1 1014.1 0.0
28/03:30am 3.3 1.8 3.2 99 0.0 CALM 0 0 0 0 1014.1 1014.1 0.0
28/03:00am 3.1 1.6 3.0 99 0.0 CALM 0 0 0 0 1014.2 1014.2 0.0
28/02:30am 3.8 1.6 3.5 98 0.1 NNW 4 9 2 5 1014.0 1014.0 0.0
28/02:00am 5.0 2.1 4.9 99 0.0 E 9 11 5 6 1013.9 1013.9 0.0
28/01:30am 4.5 1.6 4.4 99 0.0 E 9 13 5 7 1014.2 1014.2 0.0
28/01:00am 3.7 1.9 3.6 99 0.0 SSE 2 9 1 5 1014.5 1014.5 0.0
28/12:30am 4.1 2.8 4.0 99 0.0 CALM 0 0 0 0 1014.8 1014.8 0.0
28/12:00am 4.1 2.8 4.0 99 0.0 CALM 0 0 0 0 1014.9 1014.9 0.0
 
Date/Time
EST
Temp
°C
App
Temp
°C
Dew
Point
°C
Rel
Hum
%
Delta-T
°C
Wind Press
QNH
hPa
Press
MSL
hPa
Rain since
9am
mm
Dir  Spd
km/h
Gust
km/h
Spd
kts
Gust
kts
27/11:30pm 4.4 3.1 4.3 99 0.0 CALM 0 0 0 0 1015.0 1015.0 0.0
27/11:00pm 5.0 3.9 4.9 99 0.0 CALM 0 0 0 0 1015.1 1015.1 0.0
27/10:30pm 4.5 3.3 4.4 99 0.0 CALM 0 0 0 0 1015.3 1015.3 0.0
27/10:00pm 4.8 3.6 4.5 98 0.1 CALM 0 0 0 0 1015.3 1015.3 0.0
27/09:30pm 5.3 4.1 4.6 95 0.3 CALM 0 0 0 0 1015.2 1015.2 0.0
27/09:00pm 5.6 4.4 4.7 94 0.4 CALM 0 0 0 0 1015.3 1015.3 0.0
27/08:30pm 5.8 4.7 4.9 94 0.4 CALM 0 0 0 0 1015.4 1015.4 0.0
27/08:00pm 6.6 4.4 5.2 91 0.6 SW 6 7 3 4 1015.2 1015.2 0.0
27/07:30pm 7.6 5.4 5.1 84 1.1 SW 6 7 3 4 1015.2 1015.2 0.0
27/07:00pm 10.3 8.0 5.9 74 2.0 SW 7 9 4 5 1014.9 1014.9 0.0
27/06:30pm 11.1 8.6 6.5 73 2.2 WSW 9 13 5 7 1014.8 1014.8 0.0
27/06:00pm 13.4 9.2 5.8 60 3.6 WSW 17 20 9 11 1014.4 1014.4 0.0
27/05:30pm 14.8 9.9 5.1 52 4.6 WSW 20 24 11 13 1014.1 1014.1 0.0
27/05:00pm 15.4 11.2 5.6 52 4.7 SW 17 22 9 12 1014.0 1014.0 0.0
27/04:30pm 15.1 11.0 6.4 56 4.2 SW 17 24 9 13 1013.8 1013.8 0.0
27/04:00pm 15.9 12.0 6.9 55 4.5 SW 17 22 9 12 1013.6 1013.6 0.0
27/03:30pm 15.1 10.3 5.6 53 4.6 W 20 28 11 15 1013.6 1013.6 0.0
27/03:00pm 15.3 10.5 5.8 53 4.6 WSW 20 33 11 18 1013.5 1013.5 0.0
27/02:30pm 15.8 10.7 6.0 52 4.8 W 22 28 12 15 1013.7 1013.7 0.0
27/02:00pm 15.8 10.4 6.3 53 4.6 W 24 35 13 19 1013.9 1013.9 0.0
27/01:30pm 15.5 10.1 6.5 55 4.4 W 24 37 13 20 1014.2 1014.2 0.0
27/01:00pm 15.0 9.9 5.8 54 4.4 WSW 22 44 12 24 1014.4 1014.4 0.0
27/12:30pm 14.2 9.2 6.6 60 3.7 W 22 30 12 16 1014.6 1014.6 0.0
27/12:00pm 14.3 8.4 5.9 57 4.0 WSW 26 37 14 20 1014.7 1014.7 0.0
27/11:30am 13.8 8.2 5.2 56 4.0 WSW 24 37 13 20 1015.0 1015.0 0.0
27/11:00am 13.4 7.4 5.3 58 3.8 WSW 26 35 14 19 1015.1 1015.1 0.0
27/10:30am 13.3 7.6 4.7 56 4.0 WSW 24 35 13 19 1015.3 1015.3 0.0
27/10:00am 12.1 5.8 5.5 64 3.1 WSW 28 37 15 20 1015.3 1015.3 0.0
27/09:30am 12.1 6.8 7.0 71 2.5 WSW 24 33 13 18 1015.2 1015.2 0.0
27/09:00am 11.1 6.1 6.6 74 2.1 WSW 22 28 12 15 1014.9 1014.9 0.4
27/08:30am 10.2 5.3 6.7 79 1.7 WSW 22 30 12 16 1014.4 1014.4 0.4
27/08:00am 9.8 5.1 7.6 86 1.1 WSW 22 28 12 15 1014.2 1014.2 0.4
27/07:30am 9.0 4.5 6.8 86 1.0 W 20 24 11 13 1014.1 1014.1 0.4
27/07:00am 8.1 5.0 7.3 95 0.4 W 13 17 7 9 1013.8 1013.8 0.4
27/06:30am 6.9 4.1 6.8 99 0.0 WSW 11 15 6 8 1013.3 1013.3 0.4
27/06:00am 6.3 3.3 6.0 98 0.1 W 11 13 6 7 1012.9 1012.9 0.4
27/05:30am 7.1 4.5 6.2 94 0.4 WSW 9 13 5 7 1012.4 1012.4 0.4
27/05:00am 8.5 5.0 7.3 92 0.6 WSW 15 19 8 10 1012.2 1012.2 0.4
27/04:30am 9.3 6.5 8.4 94 0.4 WSW 13 17 7 9 1011.7 1011.7 0.4
27/04:00am 9.7 5.9 9.1 96 0.3 WSW 19 24 10 13 1011.5 1011.5 0.4
27/03:30am 9.5 6.5 9.4 99 0.0 WSW 15 19 8 10 1011.4 1011.4 0.4
27/03:00am 9.7 6.6 8.9 95 0.4 WSW 15 19 8 10 1011.2 1011.2 0.4
27/02:30am 10.5 6.7 8.9 90 0.8 W 19 26 10 14 1011.2 1011.2 0.4
27/02:00am 11.4 7.6 9.1 86 1.2 WNW 19 26 10 14 1011.1 1011.1 0.4
27/01:30am 10.5 8.2 8.9 90 0.8 W 11 13 6 7 1011.3 1011.3 0.4
27/01:00am 10.7 8.7 8.8 88 0.9 NNW 9 13 5 7 1011.2 1011.2 0.4
27/12:30am 10.8 8.0 8.6 86 1.1 NNW 13 15 7 8 1011.4 1011.4 0.2
27/12:00am 10.4 7.5 8.0 85 1.2 NNW 13 19 7 10 1011.8 1011.8 0.0
 
Date/Time
EST
Temp
°C
App
Temp
°C
Dew
Point
°C
Rel
Hum
%
Delta-T
°C
Wind Press
QNH
hPa
Press
MSL
hPa
Rain since
9am
mm
Dir  Spd
km/h
Gust
km/h
Spd
kts
Gust
kts
26/11:30pm 9.4 7.5 6.7 83 1.3 NNW 6 11 3 6 1011.7 1011.7 0.0
26/11:00pm 8.8 5.5 6.6 86 1.0 N 13 19 7 10 1011.6 1011.6 0.0
26/10:30pm 7.6 6.8 6.4 92 0.6 CALM 0 6 0 3 1012.3 1012.3 0.0
26/10:00pm 9.2 9.0 8.9 98 0.1 CALM 0 4 0 2 1012.9 1012.9 0.0
26/09:30pm 7.7 6.4 6.2 90 0.7 NNW 2 7 1 4 1012.9 1012.9 0.0
26/09:00pm 7.8 6.9 6.1 89 0.8 CALM 0 2 0 1 1012.4 1012.4 0.0
26/08:30pm 9.2 7.9 6.1 81 1.4 N 2 9 1 5 1012.5 1012.5 0.0
26/08:00pm 10.0 6.7 6.3 78 1.7 N 13 15 7 8 1012.4 1012.4 0.0
26/07:30pm 9.1 6.2 6.4 83 1.3 N 11 13 6 7 1012.5 1012.5 0.0
26/07:00pm 9.5 7.5 6.4 81 1.4 N 6 6 3 3 1012.4 1012.4 0.0
26/06:30pm 12.2 10.1 6.5 68 2.7 NNW 7 9 4 5 1012.2 1012.2 0.0
26/06:00pm 14.7 11.3 6.0 56 4.2 NW 13 15 7 8 1012.2 1012.2 0.0
26/05:30pm 16.4 12.2 5.7 49 5.2 NW 17 22 9 12 1012.0 1012.0 0.0
26/05:00pm 16.9 12.8 4.6 44 5.9 W 15 20 8 11 1012.1 1012.1 0.0
26/04:30pm 17.2 12.4 4.9 44 5.9 WNW 19 28 10 15 1012.0 1012.0 0.0
26/04:00pm 16.6 11.1 4.0 43 5.9 WNW 22 30 12 16 1012.2 1012.2 0.0
26/03:30pm 16.9 11.1 4.3 43 6.0 NW 24 35 13 19 1012.3 1012.3 0.0
26/03:00pm 18.4 13.0 4.6 40 6.6 WNW 22 39 12 21 1012.4 1012.4 0.0
26/02:30pm 17.5 12.2 4.8 43 6.1 WNW 22 30 12 16 1012.6 1012.6 0.0
26/02:00pm 16.7 11.8 4.1 43 5.9 WNW 19 28 10 15 1012.7 1012.7 0.0
26/01:30pm 16.4 11.3 3.1 41 6.1 WNW 19 30 10 16 1013.1 1013.1 0.0
26/01:00pm 16.3 11.3 3.4 42 6.0 WNW 19 22 10 12 1013.5 1013.5 0.0
26/12:30pm 16.4 11.1 2.8 40 6.2 W 20 26 11 14 1013.8 1013.8 0.0
26/12:00pm 16.1 11.0 4.2 45 5.6 W 20 33 11 18 1014.1 1014.1 0.0
26/11:30am 16.9 12.5 2.5 38 6.6 WNW 15 28 8 15 1014.2 1014.2 0.0
26/11:00am 16.0 10.9 3.1 42 5.9 NW 19 28 10 15 1014.6 1014.6 0.0
26/10:30am 16.0 12.4 5.0 48 5.2 NW 13 20 7 11 1015.0 1015.0 0.0
26/10:00am 14.9 11.1 6.0 55 4.3 WNW 15 24 8 13 1015.2 1015.2 0.0
26/09:30am 13.3 10.9 8.6 73 2.4 NNW 11 15 6 8 1015.4 1015.4 0.0
26/09:00am 12.5 10.7 9.3 81 1.6 WNW 9 17 5 9 1016.1 1016.1 0.0
26/08:30am 11.0 9.1 9.1 88 1.0 WNW 9 17 5 9 1015.8 1015.7 0.0
26/08:00am 9.4 8.1 9.3 99 0.0 NW 6 7 3 4 1015.4 1015.4 0.0
26/07:30am 8.0 7.2 8.0 100 0.0 WNW 2 7 1 4 1015.3 1015.3 0.0
26/07:00am 7.0 5.5 7.0 100 0.0 W 4 11 2 6 1015.2 1015.2 0.0
26/06:30am 6.1 4.4 6.1 100 0.0 WSW 4 7 2 4 1015.1 1015.1 0.0
26/06:00am 5.2 4.1 5.2 100 0.0 CALM 0 0 0 0 1014.9 1014.9 0.0
26/05:30am 4.7 3.5 4.6 99 0.0 CALM 0 0 0 0 1014.8 1014.8 0.0
26/05:00am 4.1 2.8 4.0 99 0.0 CALM 0 0 0 0 1014.6 1014.6 0.0
26/04:30am 4.2 2.9 4.1 99 0.0 CALM 0 0 0 0 1014.4 1014.4 0.0
26/04:00am 3.3 1.8 3.2 99 0.0 CALM 0 0 0 0 1014.4 1014.4 0.0
26/03:30am 2.6 0.3 2.5 99 0.0 ENE 4 6 2 3 1014.5 1014.5 0.0

Other Formats:

Comma delimited format used in spreadsheet applications
http://www.bom.gov.au/fwo/IDN60801/IDN60801.95704.axf

JavaScript Object Notation format (JSON) in row-major order
http://www.bom.gov.au/fwo/IDN60801/IDN60801.95704.json